Latest Weather Observations for Geelong Racecourse

IDV60801

Issued at 11:31 pm EST Tuesday 24 May 2016 (issued every 30 minutes, with the page automatically refreshed every 10 minutes)

About weather observations | Map of weather stations | Latest weather observations for VIC | Other Formats
Station Details ID: 087184 Name: GEELONG RACECOURSE Lat: -38.17 Lon: 144.38 Height: 12.9 m
Data from the previous 72 hours. | See also: Recent months at Geelong Racecourse
Date/Time
EST
Temp
°C
App
Temp
°C
Dew
Point
Rel
Hum
%
Delta-T
°C
Wind Press
QNH
hPa
Press
MSL
hPa
Rain
since 9 am
mm
Dir
 
Spd
km/h
Gust
km/h
Spd
kts
Gust
kts
24/11:30pm 7.1 6.2 6.2 94 0.4 CALM 0 0 0 0 1018.0 1018.0 0.0
24/11:00pm 7.5 6.7 6.6 94 0.4 CALM 0 0 0 0 1017.8 1017.8 0.0
24/10:30pm 8.0 7.3 7.1 94 0.4 CALM 0 0 0 0 1018.3 1018.3 0.0
24/10:00pm 8.1 7.0 7.0 93 0.5 N 2 4 1 2 1018.7 1018.7 0.0
24/09:30pm 8.7 7.4 7.6 93 0.5 NNW 4 6 2 3 1018.8 1018.8 0.0
24/09:00pm 8.3 6.9 7.2 93 0.5 NW 4 6 2 3 1019.3 1019.3 0.0
24/08:30pm 8.4 7.0 7.3 93 0.5 WNW 4 7 2 4 1019.6 1019.6 0.0
24/08:00pm 8.5 7.1 7.4 93 0.5 WNW 4 6 2 3 1019.4 1019.4 0.0
24/07:30pm 8.9 8.4 7.8 93 0.5 CALM 0 0 0 0 1019.5 1019.5 0.0
24/07:00pm 9.8 9.4 8.2 90 0.8 CALM 0 0 0 0 1019.5 1019.5 0.0
24/06:30pm 10.7 9.8 7.9 83 1.4 WNW 2 2 1 1 1019.5 1019.5 0.0
24/06:00pm 11.9 11.0 7.8 76 2.0 WNW 2 2 1 1 1019.4 1019.4 0.0
24/05:30pm 12.8 11.1 7.5 70 2.6 NW 6 6 3 3 1019.1 1019.1 0.0
24/05:00pm 13.5 11.7 7.3 66 3.0 WNW 6 9 3 5 1018.8 1018.8 0.0
24/04:30pm 14.1 12.2 7.4 64 3.3 W 7 13 4 7 1019.0 1019.0 0.0
24/04:00pm 14.3 11.5 6.9 61 3.6 W 11 19 6 10 1019.1 1019.1 0.0
24/03:30pm 14.5 11.4 7.3 62 3.5 WNW 13 19 7 10 1019.1 1019.1 0.0
24/03:00pm 15.3 11.9 7.6 60 3.8 W 15 22 8 12 1019.0 1019.0 0.0
24/02:30pm 14.5 11.6 8.0 65 3.2 W 13 20 7 11 1019.1 1019.1 0.0
24/02:00pm 14.6 11.3 8.1 65 3.2 W 15 24 8 13 1019.3 1019.3 0.0
24/01:30pm 14.9 11.6 7.9 63 3.5 W 15 20 8 11 1019.5 1019.5 0.0
24/01:00pm 14.4 11.8 9.2 71 2.6 WSW 13 22 7 12 1019.6 1019.6 0.0
24/12:30pm 14.4 11.2 8.6 68 2.9 W 15 24 8 13 1019.8 1019.8 0.0
24/12:00pm 14.7 12.0 10.3 75 2.3 W 15 22 8 12 1020.2 1020.2 0.0
24/11:30am 14.0 11.2 10.0 77 2.1 W 15 22 8 12 1020.7 1020.7 0.0
24/11:00am 13.4 11.0 10.0 80 1.7 W 13 24 7 13 1021.2 1021.2 0.0
24/10:30am 13.2 11.0 10.9 86 1.2 W 13 20 7 11 1021.3 1021.3 0.0
24/10:00am 12.5 11.2 11.2 92 0.7 WNW 9 17 5 9 1021.1 1021.1 0.0
24/09:30am 11.7 9.4 10.4 92 0.7 W 13 20 7 11 1021.3 1021.3 0.0
24/09:00am 11.0 8.6 9.9 93 0.6 WNW 13 20 7 11 1020.8 1020.8 1.2
24/08:30am 10.0 6.9 8.9 93 0.5 WNW 15 20 8 11 1020.7 1020.7 1.2
24/08:00am 9.5 6.7 8.4 93 0.5 WNW 13 20 7 11 1020.4 1020.4 1.2
24/07:30am 9.5 6.3 8.4 93 0.5 WNW 15 20 8 11 1020.1 1020.1 1.2
24/07:00am 9.5 6.7 8.4 93 0.5 WNW 13 22 7 12 1019.8 1019.8 1.2
24/06:30am 9.5 7.5 8.6 94 0.4 WNW 9 17 5 9 1019.6 1019.6 1.2
24/06:00am 9.5 7.4 8.4 93 0.5 WNW 9 15 5 8 1019.5 1019.5 1.2
24/05:30am 9.7 7.7 8.8 94 0.4 W 9 13 5 7 1019.5 1019.5 1.2
24/05:00am 9.9 7.2 9.0 94 0.4 WNW 13 20 7 11 1019.0 1019.0 1.2
24/04:30am 9.4 7.0 8.5 94 0.4 NW 11 17 6 9 1018.8 1018.8 1.2
24/04:00am 9.3 7.6 8.2 93 0.5 NW 7 9 4 5 1018.9 1018.9 1.0
24/03:30am 10.0 8.4 8.9 93 0.5 WNW 7 13 4 7 1019.0 1019.0 1.0
24/03:00am 10.2 7.9 9.1 93 0.5 WNW 11 19 6 10 1018.8 1018.8 1.0
24/02:30am 10.3 8.4 9.2 93 0.5 WNW 9 17 5 9 1018.9 1018.9 1.0
24/02:00am 10.7 8.6 9.6 93 0.6 W 11 17 6 9 1018.9 1018.9 1.0
24/01:30am 10.3 8.1 9.2 93 0.5 WNW 11 15 6 8 1018.7 1018.7 1.0
24/01:00am 10.6 7.7 9.5 93 0.5 WNW 15 22 8 12 1018.8 1018.8 1.0
24/12:30am 10.3 7.7 9.2 93 0.5 WNW 13 24 7 13 1019.1 1019.1 1.0
24/12:00am 10.5 7.5 9.4 93 0.5 WNW 15 22 8 12 1019.2 1019.2 1.0
 
Date/Time
EST
Temp
°C
App
Temp
°C
Dew
Point
Rel
Hum
%
Delta-T
°C
Wind Press
QNH
hPa
Press
MSL
hPa
Rain
since 9 am
mm
Dir
 
Spd
km/h
Gust
km/h
Spd
kts
Gust
kts
23/11:30pm 10.3 7.7 9.2 93 0.5 WNW 13 22 7 12 1019.3 1019.3 1.0
23/11:00pm 10.0 7.7 9.1 94 0.4 WNW 11 17 6 9 1019.2 1019.2 1.0
23/10:30pm 10.0 8.1 9.1 94 0.4 WNW 9 13 5 7 1019.2 1019.2 1.0
23/10:00pm 9.7 8.3 8.8 94 0.4 WNW 6 7 3 4 1019.2 1019.2 1.0
23/09:30pm 9.9 8.4 9.0 94 0.4 W 7 9 4 5 1019.2 1019.2 1.0
23/09:00pm 9.7 8.3 8.8 94 0.4 WSW 6 11 3 6 1019.2 1019.2 1.0
23/08:30pm 10.3 9.4 9.4 94 0.4 WNW 4 6 2 3 1019.0 1019.0 1.0
23/08:00pm 11.1 9.8 10.0 93 0.6 NW 7 11 4 6 1018.8 1018.8 1.0
23/07:30pm 11.2 10.1 10.1 93 0.6 NW 6 9 3 5 1018.7 1018.7 1.0
23/07:00pm 11.2 10.1 10.1 93 0.6 NW 6 9 3 5 1018.6 1018.6 1.0
23/06:30pm 11.1 10.0 10.0 93 0.6 NW 6 7 3 4 1018.3 1018.3 1.0
23/06:00pm 11.2 10.5 10.1 93 0.6 WNW 4 7 2 4 1018.1 1018.1 1.0
23/05:30pm 11.3 10.6 10.2 93 0.6 W 4 6 2 3 1017.9 1017.9 0.8
23/05:00pm 11.7 10.5 10.4 92 0.7 W 7 13 4 7 1017.7 1017.7 0.6
23/04:30pm 11.7 10.2 10.4 92 0.7 WNW 9 15 5 8 1017.6 1017.6 0.6
23/04:00pm 11.4 9.0 10.1 92 0.7 W 13 22 7 12 1017.6 1017.6 0.6
23/03:30pm 11.2 8.0 10.0 92 0.6 W 17 28 9 15 1017.7 1017.7 0.6
23/03:00pm 11.3 7.7 10.0 92 0.7 WSW 19 30 10 16 1017.4 1017.4 0.6
23/02:30pm 12.2 6.7 7.7 74 2.2 WSW 26 41 14 22 1017.4 1017.4 0.0
23/02:00pm 14.4 9.0 6.5 59 3.8 WNW 24 39 13 21 1016.7 1016.7 0.0
23/01:31pm 15.6 9.3 5.8 52 4.7 WNW 28 48 15 26 1016.7 1016.7 0.0
23/01:30pm 15.6 9.3 5.8 52 4.7 WNW 28 43 15 23 1016.8 1016.8 0.0
23/01:01pm 14.6 8.1 6.4 58 4.0 WNW 30 48 16 26 1017.0 1017.0 0.0
23/01:00pm 14.5 8.4 6.6 59 3.8 W 28 44 15 24 1017.1 1017.1 0.0
23/12:30pm 15.1 9.1 7.2 59 3.9 WNW 28 43 15 23 1016.9 1016.9 0.0
23/12:11pm 14.4 7.9 6.5 59 3.8 WNW 30 48 16 26 1016.9 1016.9 0.0
23/12:00pm 14.6 8.9 6.9 60 3.7 WNW 26 44 14 24 1016.9 1016.9 0.0
23/11:30am 14.6 9.1 7.6 63 3.5 W 26 39 14 21 1016.9 1016.9 0.0
23/11:00am 14.0 8.6 7.8 66 3.1 W 26 43 14 23 1017.1 1017.1 0.0
23/10:39am 13.4 7.6 7.8 69 2.8 WNW 28 48 15 26 1017.1 1017.1 0.0
23/10:30am 13.3 7.9 8.2 71 2.5 WNW 26 44 14 24 1017.1 1017.1 0.0
23/10:00am 12.6 7.6 8.1 74 2.2 WNW 24 48 13 26 1016.8 1016.8 0.0
23/09:30am 12.1 7.6 8.6 79 1.7 WNW 22 33 12 18 1016.2 1016.2 0.0
23/09:00am 11.6 7.5 8.6 82 1.5 WNW 20 35 11 19 1015.9 1015.9 2.0
23/08:30am 10.9 6.7 8.3 84 1.3 WNW 20 33 11 18 1015.4 1015.4 1.8
23/08:00am 10.7 5.9 8.8 88 0.9 WNW 24 35 13 19 1015.0 1015.0 1.8
23/07:30am 10.8 6.2 8.0 83 1.4 WNW 22 41 12 22 1014.1 1014.1 1.8
23/07:00am 11.4 4.8 7.7 78 1.8 WNW 32 54 17 29 1012.9 1012.9 1.8
23/06:30am 12.1 5.4 8.2 77 1.9 WNW 33 59 18 32 1012.2 1012.2 1.8
23/06:00am 12.3 5.7 7.8 74 2.2 NW 32 56 17 30 1011.6 1011.6 1.8
23/05:44am 12.4 6.5 7.7 73 2.3 WNW 28 48 15 26 1011.7 1011.7 1.8
23/05:30am 12.1 6.8 8.4 78 1.8 WNW 26 39 14 21 1011.7 1011.7 1.8
23/05:06am 12.4 6.7 8.3 76 2.0 WNW 28 50 15 27 1011.4 1011.4 1.8
23/05:00am 12.4 7.1 8.5 77 1.9 WNW 26 43 14 23 1011.3 1011.3 1.8
23/04:30am 12.5 8.1 9.0 79 1.8 NW 22 35 12 19 1010.9 1010.9 1.8
23/04:00am 12.7 7.2 10.4 86 1.2 WNW 30 52 16 28 1010.8 1010.8 1.8
23/03:45am 13.6 8.3 9.8 78 2.0 WNW 28 50 15 27 1010.5 1010.5 1.8
23/03:30am 13.0 10.1 11.1 88 1.0 WNW 17 26 9 14 1010.2 1010.2 1.8
23/03:00am 12.9 11.3 11.6 92 0.7 NW 11 19 6 10 1010.4 1010.4 1.8
23/02:30am 12.9 10.2 11.8 93 0.6 NW 17 24 9 13 1010.1 1010.1 1.8
23/02:00am 13.1 10.1 12.0 93 0.6 WNW 19 33 10 18 1010.1 1010.1 1.6
23/01:30am 13.5 10.5 12.4 93 0.6 WNW 20 33 11 18 1010.4 1010.4 1.2
23/01:00am 13.9 8.5 12.8 93 0.6 WNW 33 57 18 31 1010.4 1010.4 1.0
23/12:47am 16.0 11.7 13.1 83 1.6 NW 28 56 15 30 1010.5 1010.5 0.4
23/12:30am 17.9 14.7 13.0 73 2.7 NNW 22 39 12 21 1009.6 1009.6 0.2
23/12:00am 18.9 14.9 11.7 63 4.0 NW 24 44 13 24 1009.3 1009.3 0.2
 
Date/Time
EST
Temp
°C
App
Temp
°C
Dew
Point
Rel
Hum
%
Delta-T
°C
Wind Press
QNH
hPa
Press
MSL
hPa
Rain
since 9 am
mm
Dir
 
Spd
km/h
Gust
km/h
Spd
kts
Gust
kts
22/11:30pm 19.5 16.6 11.0 58 4.6 NNW 17 26 9 14 1009.4 1009.4 0.2
22/11:00pm 20.0 17.0 10.7 55 5.1 N 17 32 9 17 1009.3 1009.3 0.2
22/10:30pm 19.0 16.6 11.3 61 4.2 NNE 15 22 8 12 1009.1 1009.1 0.2
22/10:00pm 19.7 16.9 11.2 58 4.7 NNE 17 24 9 13 1009.1 1009.1 0.2
22/09:30pm 20.2 16.4 11.1 56 5.0 N 22 35 12 19 1009.9 1009.9 0.2
22/09:05pm 20.5 15.5 10.9 54 5.3 N 28 50 15 27 1009.7 1009.7 0.2
22/09:00pm 20.4 15.4 11.1 55 5.1 N 28 43 15 23 1009.8 1009.8 0.2
22/08:56pm 20.4 15.4 11.1 55 5.1 N 28 46 15 25 1009.8 1009.8 0.2
22/08:30pm 20.4 15.1 11.1 55 5.1 N 30 46 16 25 1009.7 1009.7 0.2
22/08:00pm 20.4 15.8 11.1 55 5.1 N 26 43 14 23 1010.0 1010.0 0.2
22/07:31pm 20.1 15.1 10.8 55 5.1 N 28 46 15 25 1010.1 1010.1 0.2
22/07:30pm 20.2 14.8 10.9 55 5.1 N 30 46 16 25 1010.0 1010.0 0.2
22/07:01pm 20.3 14.8 10.7 54 5.2 N 30 48 16 26 1009.8 1009.8 0.2
22/07:00pm 20.3 14.8 10.7 54 5.2 N 30 41 16 22 1009.9 1009.9 0.2
22/06:30pm 19.9 15.9 10.6 55 5.0 N 22 33 12 18 1010.2 1010.2 0.2
22/06:00pm 20.0 16.6 10.4 54 5.2 N 19 28 10 15 1010.3 1010.3 0.2
22/05:30pm 20.1 17.4 10.2 53 5.3 NNE 15 24 8 13 1010.5 1010.5 0.2
22/05:00pm 19.5 17.9 10.2 55 5.0 NE 9 13 5 7 1011.1 1011.1 0.2
22/04:30pm 20.4 19.1 9.9 51 5.6 N 7 13 4 7 1011.3 1011.3 0.2
22/04:00pm 20.9 18.1 10.1 50 5.8 NNE 15 22 8 12 1010.9 1010.9 0.2
22/03:30pm 21.1 18.3 10.0 49 6.0 NNE 15 24 8 13 1010.8 1010.8 0.2
22/03:00pm 21.4 17.9 10.3 49 6.0 N 19 28 10 15 1010.9 1010.9 0.2
22/02:30pm 21.3 17.0 9.2 46 6.4 NNE 22 30 12 16 1011.1 1011.1 0.0
22/02:00pm 21.6 17.4 7.4 40 7.3 NNE 19 33 10 18 1011.5 1011.5 0.0
22/01:30pm 21.0 18.1 8.3 44 6.6 NNE 13 19 7 10 1012.3 1012.3 0.0
22/01:00pm 21.3 17.3 8.2 43 6.9 N 19 28 10 15 1012.7 1012.7 0.0
22/12:30pm 20.8 17.3 8.8 46 6.3 N 17 24 9 13 1013.0 1013.0 0.0
22/12:00pm 20.1 15.7 8.8 48 5.9 N 22 33 12 18 1013.5 1013.5 0.0
22/11:30am 19.4 16.3 10.4 56 4.8 NNE 17 26 9 14 1014.0 1014.0 0.0
22/11:00am 17.5 15.1 11.5 68 3.3 NNE 15 22 8 12 1014.4 1014.4 0.0
22/10:30am 16.6 14.5 11.3 71 2.9 NNE 13 20 7 11 1015.3 1015.3 0.0
22/10:00am 15.6 13.2 11.4 76 2.3 NNE 15 22 8 12 1015.6 1015.6 0.0
22/09:30am 15.2 12.3 11.0 76 2.2 NNE 17 26 9 14 1016.1 1016.1 0.0
22/09:00am 14.7 12.2 11.1 79 1.9 NNE 15 24 8 13 1016.5 1016.5 0.0
22/08:30am 14.1 11.1 10.5 79 1.9 NE 17 24 9 13 1016.2 1016.2 0.0
22/08:00am 13.4 10.8 10.8 84 1.4 NNE 15 24 8 13 1016.8 1016.8 0.0
22/07:30am 13.6 10.6 10.8 83 1.5 NNE 17 26 9 14 1017.0 1017.0 0.0
22/07:00am 13.8 10.8 10.6 81 1.7 NNE 17 28 9 15 1017.2 1017.2 0.0
22/06:30am 11.9 10.4 10.6 92 0.7 N 9 17 5 9 1017.1 1017.1 0.0
22/06:00am 9.8 8.8 8.9 94 0.4 NNE 4 7 2 4 1017.2 1017.2 0.0
22/05:30am 9.7 8.6 8.6 93 0.5 NNE 4 6 2 3 1017.5 1017.5 0.0
22/05:00am 10.7 10.3 9.6 93 0.6 NNE 2 4 1 2 1018.1 1018.1 0.0
22/04:30am 11.3 10.3 10.2 93 0.6 NNE 6 7 3 4 1017.9 1017.9 0.0
22/04:00am 11.8 10.3 10.5 92 0.7 N 9 15 5 8 1017.9 1017.9 0.0
22/03:30am 11.4 9.8 10.3 93 0.6 N 9 13 5 7 1018.4 1018.4 0.0
22/03:00am 9.7 8.1 8.6 93 0.5 N 7 11 4 6 1018.6 1018.6 0.0
22/02:30am 10.9 9.5 9.7 92 0.6 N 7 11 4 6 1018.7 1018.7 0.0
22/02:00am 11.0 10.3 9.9 93 0.6 NNE 4 7 2 4 1018.9 1018.9 0.0
22/01:30am 11.6 10.4 10.3 92 0.7 NNE 7 9 4 5 1019.0 1019.0 0.0
22/01:00am 11.1 9.9 9.7 91 0.7 N 6 11 3 6 1019.4 1019.4 0.0
22/12:30am 12.2 11.1 9.8 85 1.2 NNE 6 9 3 5 1019.5 1019.5 0.0
22/12:00am 12.6 11.1 9.2 80 1.7 NNE 7 9 4 5 1019.8 1019.8 0.0

Other Formats:

Comma delimited format used in spreadsheet applications
http://www.bom.gov.au/fwo/IDV60801/IDV60801.94857.axf

JavaScript Object Notation format (JSON) in row-major order
http://www.bom.gov.au/fwo/IDV60801/IDV60801.94857.json